createdAt,value
2019-03-22T00:02:10.863Z,99.17
2019-03-22T00:04:42.354Z,95.83
2019-03-22T00:07:13.696Z,102.10
2019-03-22T00:09:45.024Z,94.17
2019-03-22T00:12:16.415Z,93.62
2019-03-22T00:14:47.738Z,96.23
2019-03-22T00:17:19.073Z,109.22
2019-03-22T00:19:50.480Z,104.20
2019-03-22T00:22:21.734Z,97.45
2019-03-22T00:24:53.039Z,98.10
2019-03-22T00:27:24.328Z,87.70
2019-03-22T00:29:55.669Z,93.82
2019-03-22T00:32:27.020Z,91.90
2019-03-22T00:34:58.554Z,90.90
2019-03-22T00:37:29.835Z,88.83
2019-03-22T00:40:01.133Z,89.45
2019-03-22T00:42:32.486Z,87.95
2019-03-22T00:45:03.803Z,81.80
2019-03-22T00:47:35.131Z,79.65
2019-03-22T00:50:06.706Z,81.37
2019-03-22T00:52:38.017Z,78.67
2019-03-22T00:55:10.155Z,81.95
2019-03-22T00:57:41.471Z,86.32
2019-03-22T01:00:13.465Z,87.67
2019-03-22T01:02:44.826Z,82.62
2019-03-22T01:05:17.603Z,79.23
2019-03-22T01:07:49.449Z,77.37
2019-03-22T01:10:20.856Z,74.80
2019-03-22T01:12:52.178Z,75.97
2019-03-22T01:15:23.512Z,72.25
2019-03-22T01:17:54.905Z,81.17
2019-03-22T01:20:26.182Z,72.25
2019-03-22T01:23:00.037Z,74.35
2019-03-22T01:25:30.625Z,74.75
2019-03-22T01:28:01.886Z,76.02
2019-03-22T01:30:33.138Z,72.67
2019-03-22T01:33:04.559Z,78.83
2019-03-22T01:35:35.909Z,75.57
2019-03-22T01:38:07.287Z,77.55
2019-03-22T01:40:38.632Z,72.12
2019-03-22T01:43:10.111Z,76.20
2019-03-22T01:45:41.408Z,81.15
2019-03-22T01:48:12.753Z,84.40
2019-03-22T01:50:44.228Z,76.85
2019-03-22T01:53:15.640Z,74.05
2019-03-22T01:55:46.904Z,80.15
2019-03-22T01:58:18.216Z,77.08
2019-03-22T02:00:49.453Z,81.53
2019-03-22T02:03:20.856Z,85.27
2019-03-22T02:05:52.233Z,90.25
2019-03-22T02:08:23.982Z,88.95
2019-03-22T02:10:55.358Z,96.28
2019-03-22T02:13:26.758Z,91.82
2019-03-22T02:15:58.160Z,93.95
2019-03-22T02:18:29.407Z,89.13
2019-03-22T02:21:00.783Z,93.55
2019-03-22T02:23:32.077Z,84.42
2019-03-22T02:26:03.374Z,89.05
2019-03-22T02:28:34.662Z,86.63
2019-03-22T02:31:06.017Z,89.45
2019-03-22T02:33:37.344Z,83.65
2019-03-22T02:36:08.659Z,90.60
2019-03-22T02:38:40.008Z,87.33
2019-03-22T02:41:11.415Z,88.45
2019-03-22T02:43:42.763Z,85.97
2019-03-22T02:46:14.127Z,84.22
2019-03-22T02:48:45.429Z,94.65
2019-03-22T02:51:16.826Z,90.22
2019-03-22T02:53:48.122Z,90.50
2019-03-22T02:56:19.463Z,100.97
2019-03-22T02:58:50.746Z,97.95
2019-03-22T03:01:22.063Z,90.17
2019-03-22T04:24:49.036Z,100.42
2019-03-22T04:27:23.929Z,116.40
2019-03-22T04:29:56.842Z,102.27
2019-03-22T04:32:29.340Z,90.20
2019-03-22T04:35:00.778Z,100.67
2019-03-22T04:37:54.070Z,96.95
2019-03-22T04:40:28.864Z,107.13
2019-03-22T04:43:00.429Z,101.42
2019-03-22T04:45:34.815Z,97.90
2019-03-22T04:48:14.754Z,102.45
2019-03-22T04:50:49.812Z,101.85
2019-03-22T04:53:27.400Z,103.75
2019-03-22T04:56:04.783Z,99.37
2019-03-22T04:58:43.467Z,106.35
2019-03-22T05:01:18.879Z,105.07
2019-03-22T05:03:50.665Z,108.40
2019-03-22T05:06:23.538Z,99.72
2019-03-22T05:08:57.253Z,103.05
2019-03-22T05:11:30.050Z,99.45
2019-03-22T05:14:05.273Z,109.45
2019-03-22T05:16:41.902Z,110.45
2019-03-22T05:19:17.207Z,107.53
2019-03-22T05:21:51.464Z,106.47
2019-03-22T05:24:25.669Z,92.92
2019-03-22T05:26:59.827Z,108.75
2019-03-22T05:29:34.979Z,104.25
2019-03-22T05:32:14.725Z,102.07
2019-03-22T05:34:46.059Z,111.93
2019-03-22T05:37:17.345Z,111.30
2019-03-22T05:39:48.687Z,105.80
2019-03-22T05:42:20.004Z,104.25
2019-03-22T05:44:51.263Z,109.87
2019-03-22T05:47:22.633Z,102.30
2019-03-22T05:49:53.932Z,107.20
2019-03-22T05:52:25.232Z,113.17
2019-03-22T05:54:56.540Z,105.35
2019-03-22T05:57:27.909Z,113.15
2019-03-22T05:59:59.234Z,99.63
2019-03-22T06:02:30.578Z,106.85
2019-03-22T06:05:01.851Z,96.15
2019-03-22T06:07:33.134Z,117.75
2019-03-22T06:10:04.688Z,113.97
2019-03-22T06:12:35.998Z,118.67
2019-03-22T06:15:08.320Z,117.42
2019-03-22T06:17:50.907Z,108.40
2019-03-22T06:20:12.664Z,113.12
2019-03-22T06:22:43.921Z,101.20
2019-03-22T06:25:15.166Z,116.82
2019-03-22T06:27:46.418Z,103.50
2019-03-22T06:30:17.774Z,95.00
2019-03-22T06:32:49.103Z,113.08
2019-03-22T06:35:20.428Z,115.10
2019-03-22T06:37:51.766Z,127.17
2019-03-22T06:40:23.178Z,114.40
2019-03-22T06:42:54.489Z,125.60
2019-03-22T06:45:25.828Z,113.05
2019-03-22T06:47:56.988Z,114.35
2019-03-22T06:50:28.403Z,131.20
2019-03-22T06:52:59.771Z,119.03
2019-03-22T06:55:31.096Z,115.17
2019-03-22T06:58:02.383Z,119.02
2019-03-22T07:00:33.656Z,120.30
2019-03-22T07:03:05.026Z,114.97
2019-03-22T07:05:36.313Z,120.95
2019-03-22T07:08:07.653Z,117.42
2019-03-22T07:10:38.956Z,110.30
2019-03-22T07:13:10.365Z,106.63
2019-03-22T07:15:41.714Z,111.60
2019-03-22T07:18:13.047Z,109.00
2019-03-22T07:20:44.394Z,116.57
2019-03-22T07:23:15.722Z,122.28
2019-03-22T07:25:47.646Z,120.35
2019-03-22T07:28:18.977Z,122.02
2019-03-22T07:30:50.289Z,121.75
2019-03-22T07:33:21.647Z,114.57
2019-03-22T07:35:52.960Z,110.03
2019-03-22T07:38:27.163Z,115.03
2019-03-22T07:40:58.376Z,120.82
2019-03-22T07:43:29.848Z,115.40
2019-03-22T07:46:01.302Z,120.85
2019-03-22T07:48:32.632Z,131.13
2019-03-22T07:51:04.058Z,126.53
2019-03-22T07:53:35.369Z,131.80
2019-03-22T07:56:06.886Z,125.62
2019-03-22T07:58:38.183Z,123.80
2019-03-22T08:01:09.487Z,128.30
2019-03-22T08:03:40.797Z,127.70
2019-03-22T08:06:12.131Z,146.80
2019-03-22T08:08:43.432Z,129.97
2019-03-22T08:11:14.798Z,135.15
2019-03-22T08:13:46.035Z,134.07
2019-03-22T08:16:17.280Z,128.25
2019-03-22T08:18:48.637Z,118.20
2019-03-22T08:21:19.978Z,126.97
2019-03-22T08:23:51.322Z,129.03
2019-03-22T08:26:22.642Z,130.90
2019-03-22T08:28:53.874Z,117.47
2019-03-22T08:31:25.070Z,127.72
2019-03-22T08:33:56.406Z,110.65
2019-03-22T08:36:27.590Z,111.83
2019-03-22T08:38:58.763Z,107.03
2019-03-22T08:41:30.143Z,100.53
2019-03-22T08:44:02.852Z,102.62
2019-03-22T08:46:34.475Z,102.82
2019-03-22T08:49:09.077Z,109.03
2019-03-22T08:51:38.814Z,105.00
2019-03-22T08:54:10.034Z,110.30
2019-03-22T08:56:41.339Z,98.80
2019-03-22T08:59:13.543Z,103.90
2019-03-22T09:01:45.053Z,102.40
2019-03-22T09:04:16.327Z,109.95
2019-03-22T09:06:47.627Z,110.52
2019-03-22T09:09:18.742Z,105.95
2019-03-22T09:11:50.048Z,100.25
2019-03-22T09:14:21.279Z,116.95
2019-03-22T09:16:52.665Z,106.52
2019-03-22T09:19:23.908Z,106.10
2019-03-22T09:21:55.266Z,103.55
2019-03-22T09:24:38.518Z,102.67
2019-03-22T09:26:59.557Z,102.72
2019-03-22T09:29:30.743Z,111.17
2019-03-22T09:32:02.009Z,107.70
2019-03-22T09:34:34.247Z,110.35
2019-03-22T09:37:08.641Z,109.13
2019-03-22T09:39:39.073Z,119.10
2019-03-22T09:42:10.390Z,111.15
2019-03-22T09:44:43.839Z,104.00
2019-03-22T09:47:16.504Z,105.73
2019-03-22T09:49:47.589Z,115.60
2019-03-22T09:52:18.914Z,114.03
2019-03-22T09:54:50.623Z,103.80
2019-03-22T09:57:21.938Z,109.03
2019-03-22T09:59:53.248Z,105.52
2019-03-22T10:02:24.556Z,104.67
2019-03-22T10:04:55.798Z,99.37
2019-03-22T10:07:27.179Z,102.00
2019-03-22T10:09:58.361Z,107.70
2019-03-22T10:12:29.705Z,92.80
2019-03-22T10:15:01.039Z,100.70
2019-03-22T10:17:32.325Z,102.25
2019-03-22T10:20:03.508Z,89.40
2019-03-22T10:22:34.924Z,90.60
2019-03-22T10:25:06.721Z,93.90
2019-03-22T10:27:38.067Z,94.22
2019-03-22T10:30:09.977Z,96.13
2019-03-22T10:32:41.255Z,92.55
2019-03-22T10:35:25.436Z,94.42
2019-03-22T10:37:45.930Z,91.00
2019-03-22T10:40:17.425Z,79.40
2019-03-22T10:42:48.849Z,83.50
2019-03-22T10:45:20.271Z,94.25
2019-03-22T10:47:51.579Z,81.95
2019-03-22T10:50:22.907Z,90.87
2019-03-22T10:52:54.230Z,85.10
2019-03-22T10:55:30.308Z,83.78
2019-03-22T10:57:58.243Z,88.00
2019-03-22T11:00:29.657Z,97.57
2019-03-22T11:03:00.976Z,86.82
2019-03-22T11:05:32.312Z,87.00
2019-03-22T11:08:03.556Z,95.50
2019-03-22T11:10:34.839Z,94.97
2019-03-22T11:13:06.446Z,92.02
2019-03-22T11:15:47.919Z,95.60
2019-03-22T11:18:10.886Z,98.37
2019-03-22T11:20:42.278Z,92.50
2019-03-22T11:23:13.459Z,89.10
2019-03-22T11:25:44.804Z,85.30
2019-03-22T11:28:16.195Z,91.63
2019-03-22T11:30:47.529Z,101.42
2019-03-22T11:33:18.830Z,103.07
2019-03-22T11:35:50.204Z,103.53
2019-03-22T11:38:23.002Z,99.07
2019-03-22T11:40:54.346Z,94.62
2019-03-22T11:43:25.738Z,95.67
2019-03-22T11:45:56.928Z,95.95
2019-03-22T11:48:28.231Z,95.97
2019-03-22T11:50:59.477Z,94.65
2019-03-22T11:53:30.695Z,92.50
2019-03-22T11:56:02.052Z,104.03
2019-03-22T11:58:33.366Z,93.03
2019-03-22T12:01:04.634Z,88.87
2019-03-22T12:03:35.977Z,92.57
2019-03-22T12:06:07.485Z,91.40
2019-03-22T12:08:38.764Z,89.42
2019-03-22T12:11:10.011Z,89.03
2019-03-22T12:13:41.374Z,89.40
2019-03-22T12:16:12.701Z,93.60
2019-03-22T12:18:44.004Z,89.87
2019-03-22T12:21:15.385Z,87.27
2019-03-22T12:23:46.770Z,82.60
2019-03-22T12:26:18.073Z,87.33
2019-03-22T12:28:49.417Z,86.03
2019-03-22T12:31:20.764Z,78.70
2019-03-22T12:33:52.006Z,77.00
2019-03-22T12:36:23.267Z,78.20
2019-03-22T12:38:54.566Z,75.20
2019-03-22T12:41:25.805Z,72.08
2019-03-22T12:43:57.304Z,69.80
2019-03-22T12:46:28.585Z,78.97
2019-03-22T12:48:59.887Z,65.60
2019-03-22T12:51:31.225Z,67.65
2019-03-22T12:54:02.599Z,55.03
2019-03-22T12:56:33.808Z,62.20
2019-03-22T12:59:05.112Z,63.75
2019-03-22T13:01:36.403Z,62.40
2019-03-22T13:04:07.961Z,65.72
2019-03-22T13:06:39.330Z,68.85
2019-03-22T13:09:11.380Z,61.85
2019-03-22T13:11:42.679Z,71.53
2019-03-22T13:14:13.971Z,69.87
2019-03-22T13:16:45.256Z,58.38
2019-03-22T13:19:16.597Z,60.00
2019-03-22T13:21:47.963Z,62.30
2019-03-22T13:24:19.334Z,59.18
2019-03-22T13:26:50.689Z,59.23
2019-03-22T13:29:22.024Z,62.43
2019-03-22T13:31:53.328Z,62.50
2019-03-22T13:34:24.677Z,54.60
2019-03-22T13:36:55.947Z,55.67
2019-03-22T13:39:27.189Z,50.05
2019-03-22T13:41:58.483Z,65.95
2019-03-22T13:44:29.899Z,54.88
2019-03-22T13:47:01.222Z,54.25
2019-03-22T13:49:32.698Z,56.30
2019-03-22T13:52:04.220Z,56.02
2019-03-22T13:54:35.699Z,61.40
2019-03-22T13:57:07.036Z,60.90
2019-03-22T13:59:38.433Z,58.83
2019-03-22T14:02:09.741Z,56.75
2019-03-22T14:04:40.998Z,56.20
2019-03-22T14:07:12.285Z,55.45
2019-03-22T14:09:43.408Z,55.03
2019-03-22T14:12:14.642Z,54.70
2019-03-22T14:14:46.226Z,51.28
2019-03-22T14:17:17.566Z,52.93
2019-03-22T14:19:48.810Z,53.33
2019-03-22T14:22:20.080Z,66.92
2019-03-22T14:25:10.655Z,56.50
2019-03-22T14:28:02.822Z,51.63
2019-03-22T14:30:34.165Z,51.68
2019-03-22T14:33:12.818Z,61.63
2019-03-22T14:35:38.524Z,53.87
2019-03-22T14:38:09.851Z,53.50
2019-03-22T14:40:41.170Z,62.35
2019-03-22T14:43:12.413Z,52.78
2019-03-22T14:45:43.697Z,58.17
2019-03-22T14:48:14.950Z,59.20
2019-03-22T14:50:46.282Z,56.83
2019-03-22T14:53:17.580Z,56.60
2019-03-22T14:55:48.810Z,64.42
2019-03-22T14:58:20.149Z,61.55
2019-03-22T15:00:51.459Z,54.90
2019-03-22T15:03:28.585Z,55.57
2019-03-22T15:05:59.846Z,55.23
2019-03-22T15:08:31.133Z,68.20
2019-03-22T15:11:02.531Z,69.93
2019-03-22T15:13:44.650Z,58.70
2019-03-22T15:16:47.615Z,65.85
2019-03-22T15:19:50.083Z,60.33
2019-03-22T15:22:43.520Z,59.03
2019-03-22T15:25:40.123Z,60.60
2019-03-22T15:28:34.072Z,60.70
2019-03-22T15:31:39.435Z,58.75
2019-03-22T15:34:28.255Z,59.20
2019-03-22T15:37:27.175Z,63.13
2019-03-22T15:40:05.250Z,61.20
2019-03-22T15:42:36.617Z,61.63
2019-03-22T15:45:11.930Z,60.08
2019-03-22T15:47:43.358Z,61.18
2019-03-22T15:50:16.744Z,65.23
2019-03-22T15:52:48.111Z,63.35
2019-03-22T15:55:19.576Z,67.78
2019-03-22T15:57:50.893Z,62.05
2019-03-22T16:00:22.348Z,61.68
2019-03-22T16:02:53.649Z,65.50
2019-03-22T16:05:24.970Z,66.85
2019-03-22T16:07:56.301Z,71.80
2019-03-22T16:10:27.646Z,71.72
2019-03-22T16:12:58.983Z,74.20
2019-03-22T16:15:30.319Z,70.65
2019-03-22T16:18:01.711Z,66.75
2019-03-22T16:20:32.969Z,83.30
2019-03-22T16:23:04.382Z,70.53
2019-03-22T16:25:54.524Z,77.35
2019-03-22T16:28:25.798Z,81.20
2019-03-22T16:30:57.060Z,77.42
2019-03-22T16:33:28.320Z,77.12
2019-03-22T16:35:59.665Z,73.15
2019-03-22T16:38:30.950Z,78.22
2019-03-22T16:41:02.335Z,75.37
2019-03-22T16:43:33.595Z,84.53
2019-03-22T16:46:04.961Z,84.17
2019-03-22T16:48:36.370Z,82.93
2019-03-22T16:51:07.812Z,76.53
2019-03-22T16:53:39.142Z,80.47
2019-03-22T16:56:10.431Z,75.30
2019-03-22T16:58:41.831Z,83.55
2019-03-22T17:01:13.356Z,75.52
2019-03-22T17:03:44.730Z,85.92
2019-03-22T17:06:16.073Z,80.28
2019-03-22T17:08:47.303Z,88.60
2019-03-22T17:11:18.656Z,85.87
2019-03-22T17:13:50.072Z,86.80
2019-03-22T17:16:21.429Z,88.15
2019-03-22T17:18:52.587Z,82.15
2019-03-22T17:21:23.837Z,89.87
2019-03-22T17:23:55.160Z,79.25
2019-03-22T17:26:26.442Z,84.00
2019-03-22T17:28:57.793Z,78.28
2019-03-22T17:31:29.123Z,82.15
2019-03-22T17:34:00.484Z,87.62
2019-03-22T17:36:31.836Z,83.17
2019-03-22T17:39:03.278Z,81.30
2019-03-22T17:41:34.692Z,86.27
2019-03-22T17:44:06.051Z,85.75
2019-03-22T17:46:37.436Z,93.72
2019-03-22T17:49:08.748Z,86.17
2019-03-22T17:51:40.135Z,85.95
2019-03-22T17:54:11.450Z,85.35
2019-03-22T17:56:42.760Z,93.50
2019-03-22T17:59:14.126Z,97.70
2019-03-22T18:01:45.584Z,91.50
2019-03-22T18:04:23.842Z,89.55
2019-03-22T18:06:49.970Z,101.50
2019-03-22T18:09:22.532Z,99.47
2019-03-22T18:11:53.825Z,94.85
2019-03-22T18:14:26.941Z,96.37
2019-03-22T18:16:57.993Z,92.75
2019-03-22T18:19:29.283Z,94.77
2019-03-22T18:22:00.444Z,97.15
2019-03-22T18:24:31.667Z,93.60
2019-03-22T18:27:03.119Z,93.03
2019-03-22T18:29:34.386Z,113.25
2019-03-22T18:32:05.723Z,87.45
2019-03-22T18:34:37.622Z,93.45
2019-03-22T18:37:08.943Z,97.27
2019-03-22T18:39:40.302Z,90.53
2019-03-22T18:42:11.596Z,108.67
2019-03-22T18:44:42.906Z,105.95
2019-03-22T18:47:14.126Z,100.07
2019-03-22T18:49:45.653Z,107.22
2019-03-22T18:52:17.032Z,103.83
2019-03-22T18:54:48.736Z,108.45
2019-03-22T18:57:19.955Z,114.97
2019-03-22T18:59:51.186Z,111.73
2019-03-22T19:02:22.531Z,109.60
2019-03-22T19:04:53.855Z,109.25
2019-03-22T19:07:25.293Z,104.50
2019-03-22T19:09:56.711Z,119.47
2019-03-22T19:12:28.349Z,124.55
2019-03-22T19:14:59.666Z,117.40
2019-03-22T19:17:30.947Z,117.82
2019-03-22T19:20:02.229Z,117.33
2019-03-22T19:22:33.536Z,117.62
2019-03-22T19:25:05.193Z,125.30
2019-03-22T19:27:36.475Z,114.15
2019-03-22T19:30:08.881Z,127.38
2019-03-22T19:32:40.346Z,121.37
2019-03-22T19:35:13.212Z,118.80
2019-03-22T19:37:44.585Z,126.82
2019-03-22T19:40:17.515Z,123.13
2019-03-22T19:42:48.833Z,113.03
2019-03-22T19:45:20.301Z,128.72
2019-03-22T19:47:51.556Z,119.10
2019-03-22T19:50:22.919Z,113.37
2019-03-22T19:52:54.208Z,120.53
2019-03-22T19:55:25.508Z,124.33
2019-03-22T19:57:57.354Z,128.23
2019-03-22T20:00:28.703Z,119.28
2019-03-22T20:02:59.992Z,119.55
2019-03-22T20:05:33.204Z,122.65
2019-03-22T20:08:05.095Z,125.45
2019-03-22T20:10:38.921Z,140.32
2019-03-22T20:13:10.352Z,129.35
2019-03-22T20:15:41.788Z,128.12
2019-03-22T20:18:13.150Z,132.95
2019-03-22T20:20:44.579Z,136.90
2019-03-22T20:23:15.960Z,138.90
2019-03-22T20:25:47.208Z,147.78
2019-03-22T20:28:18.509Z,136.12
2019-03-22T20:30:49.882Z,133.95
2019-03-22T20:33:21.192Z,137.30
2019-03-22T20:35:52.466Z,122.90
2019-03-22T20:38:24.988Z,128.30
2019-03-22T20:40:56.433Z,138.12
2019-03-22T20:43:27.734Z,138.95
2019-03-22T20:45:59.046Z,138.43
2019-03-22T20:48:30.351Z,139.23
2019-03-22T20:51:01.752Z,129.65
2019-03-22T20:53:33.105Z,137.25
2019-03-22T20:56:04.667Z,131.52
2019-03-22T20:58:36.055Z,133.82
2019-03-22T21:01:07.458Z,132.63
2019-03-22T21:03:38.759Z,129.78
2019-03-22T21:06:10.546Z,141.55
2019-03-22T21:08:42.350Z,125.82
2019-03-22T21:11:16.926Z,140.60
2019-03-22T21:13:48.287Z,133.43
2019-03-22T21:16:19.661Z,146.28
2019-03-22T21:18:51.070Z,142.07
2019-03-22T21:21:25.392Z,134.67
2019-03-22T21:23:55.735Z,142.10
2019-03-22T21:26:27.461Z,133.97
2019-03-22T21:28:58.945Z,142.72
2019-03-22T21:31:30.256Z,149.72
2019-03-22T21:34:01.671Z,140.00
2019-03-22T21:36:33.072Z,145.07
2019-03-22T21:39:06.445Z,144.02
2019-03-22T21:41:38.205Z,140.47
2019-03-22T21:44:10.002Z,142.93
2019-03-22T21:46:42.682Z,144.75
2019-03-22T21:49:14.272Z,143.62
2019-03-22T21:51:45.743Z,154.82
2019-03-22T21:54:17.149Z,142.60
2019-03-22T21:56:48.524Z,147.00
2019-03-22T21:59:19.901Z,155.48
2019-03-22T22:01:51.221Z,143.75
2019-03-22T22:04:22.500Z,145.77
2019-03-22T22:06:54.037Z,148.07
2019-03-22T22:09:25.393Z,150.82
2019-03-22T22:11:56.751Z,156.12
2019-03-22T22:14:28.041Z,149.35
2019-03-22T22:16:59.472Z,151.80
2019-03-22T22:19:31.180Z,150.90
2019-03-22T22:22:02.424Z,163.55
2019-03-22T22:24:33.750Z,161.60
2019-03-22T22:27:13.496Z,154.32
2019-03-22T22:29:38.161Z,161.73
2019-03-22T22:32:09.530Z,161.10
2019-03-22T22:34:40.725Z,166.62
2019-03-22T22:37:12.099Z,161.40
2019-03-22T22:39:43.458Z,152.53
2019-03-22T22:42:14.815Z,177.60
2019-03-22T22:44:46.010Z,152.53
2019-03-22T22:47:17.429Z,167.33
2019-03-22T22:49:49.063Z,171.57
2019-03-22T22:52:20.424Z,155.72
2019-03-22T22:54:51.759Z,149.45
2019-03-22T22:57:23.108Z,158.50
2019-03-22T22:59:54.472Z,156.57
2019-03-22T23:02:25.807Z,159.50
2019-03-22T23:04:57.151Z,149.20
2019-03-22T23:07:28.443Z,161.68
2019-03-22T23:09:59.787Z,156.43
2019-03-22T23:12:31.087Z,165.35
2019-03-22T23:15:02.449Z,156.90
2019-03-22T23:17:35.865Z,156.65
2019-03-22T23:20:07.673Z,157.85
2019-03-22T23:22:39.057Z,169.75
2019-03-22T23:25:11.080Z,161.40
2019-03-22T23:27:42.385Z,155.53
2019-03-22T23:30:14.636Z,153.50
2019-03-22T23:32:46.010Z,159.07
2019-03-22T23:35:17.322Z,161.60
2019-03-22T23:37:48.644Z,149.10
2019-03-22T23:40:19.991Z,150.78
2019-03-22T23:42:51.335Z,152.22
2019-03-22T23:45:22.641Z,160.82
2019-03-22T23:47:53.974Z,157.78
2019-03-22T23:50:25.144Z,161.40
2019-03-22T23:52:56.477Z,167.47
2019-03-22T23:55:27.823Z,157.97
2019-03-22T23:57:59.225Z,149.05
